sensor_id;sensor_type;location;lat;lon;timestamp;P1;durP1;ratioP1;P2;durP2;ratioP2
29238;SDS011;16267;48.194;11.546;2023-01-29T00:00:25;29.08;;;17.65;;
29238;SDS011;16267;48.194;11.546;2023-01-29T00:02:51;28.88;;;17.08;;
29238;SDS011;16267;48.194;11.546;2023-01-29T00:05:17;31.25;;;17.20;;
29238;SDS011;16267;48.194;11.546;2023-01-29T00:07:42;32.45;;;18.25;;
29238;SDS011;16267;48.194;11.546;2023-01-29T00:10:09;32.17;;;17.65;;
29238;SDS011;16267;48.194;11.546;2023-01-29T00:12:35;29.42;;;17.08;;
29238;SDS011;16267;48.194;11.546;2023-01-29T00:15:01;30.45;;;18.20;;
29238;SDS011;16267;48.194;11.546;2023-01-29T00:17:27;29.33;;;17.35;;
29238;SDS011;16267;48.194;11.546;2023-01-29T00:19:53;32.80;;;18.42;;
29238;SDS011;16267;48.194;11.546;2023-01-29T00:22:18;32.35;;;17.27;;
29238;SDS011;16267;48.194;11.546;2023-01-29T00:24:44;29.65;;;17.65;;
29238;SDS011;16267;48.194;11.546;2023-01-29T00:27:10;29.75;;;17.00;;
29238;SDS011;16267;48.194;11.546;2023-01-29T00:29:36;28.25;;;16.05;;
29238;SDS011;16267;48.194;11.546;2023-01-29T00:32:01;29.45;;;16.73;;
29238;SDS011;16267;48.194;11.546;2023-01-29T00:34:27;30.75;;;17.50;;
29238;SDS011;16267;48.194;11.546;2023-01-29T00:36:53;32.20;;;17.08;;
29238;SDS011;16267;48.194;11.546;2023-01-29T00:42:43;26.67;;;15.05;;
29238;SDS011;16267;48.194;11.546;2023-01-29T00:45:28;30.83;;;16.33;;
29238;SDS011;16267;48.194;11.546;2023-01-29T00:47:53;28.50;;;16.60;;
29238;SDS011;16267;48.194;11.546;2023-01-29T00:52:48;27.73;;;16.50;;
29238;SDS011;16267;48.194;11.546;2023-01-29T00:55:15;28.10;;;16.00;;
29238;SDS011;16267;48.194;11.546;2023-01-29T00:57:41;27.38;;;15.45;;
29238;SDS011;16267;48.194;11.546;2023-01-29T01:00:08;30.77;;;15.70;;
29238;SDS011;16267;48.194;11.546;2023-01-29T01:02:38;25.70;;;15.95;;
29238;SDS011;16267;48.194;11.546;2023-01-29T01:05:22;23.63;;;15.07;;
29238;SDS011;16267;48.194;11.546;2023-01-29T01:07:49;26.10;;;15.68;;
29238;SDS011;16267;48.194;11.546;2023-01-29T01:10:20;23.35;;;14.75;;
29238;SDS011;16267;48.194;11.546;2023-01-29T01:13:05;26.17;;;15.38;;
29238;SDS011;16267;48.194;11.546;2023-01-29T01:15:37;23.40;;;14.77;;
29238;SDS011;16267;48.194;11.546;2023-01-29T01:20:31;25.13;;;14.70;;
29238;SDS011;16267;48.194;11.546;2023-01-29T01:22:58;22.88;;;14.10;;
29238;SDS011;16267;48.194;11.546;2023-01-29T01:25:25;23.02;;;14.82;;
29238;SDS011;16267;48.194;11.546;2023-01-29T01:30:39;24.25;;;14.45;;
29238;SDS011;16267;48.194;11.546;2023-01-29T01:33:05;22.73;;;13.07;;
29238;SDS011;16267;48.194;11.546;2023-01-29T01:35:37;17.63;;;11.50;;
29238;SDS011;16267;48.194;11.546;2023-01-29T01:38:05;18.63;;;10.90;;
29238;SDS011;16267;48.194;11.546;2023-01-29T01:40:31;16.95;;;10.65;;
29238;SDS011;16267;48.194;11.546;2023-01-29T01:42:59;17.45;;;10.15;;
29238;SDS011;16267;48.194;11.546;2023-01-29T01:45:28;14.77;;;9.73;;
29238;SDS011;16267;48.194;11.546;2023-01-29T01:51:18;14.00;;;8.65;;
29238;SDS011;16267;48.194;11.546;2023-01-29T01:54:00;11.73;;;7.82;;
29238;SDS011;16267;48.194;11.546;2023-01-29T01:56:41;12.90;;;7.60;;
29238;SDS011;16267;48.194;11.546;2023-01-29T01:59:12;13.88;;;8.02;;
29238;SDS011;16267;48.194;11.546;2023-01-29T02:04:50;12.52;;;7.88;;
29238;SDS011;16267;48.194;11.546;2023-01-29T02:07:39;13.15;;;8.25;;
29238;SDS011;16267;48.194;11.546;2023-01-29T02:10:41;11.43;;;7.05;;
29238;SDS011;16267;48.194;11.546;2023-01-29T02:13:11;5.57;;;4.18;;
29238;SDS011;16267;48.194;11.546;2023-01-29T02:15:40;7.78;;;4.70;;
29238;SDS011;16267;48.194;11.546;2023-01-29T02:18:11;9.82;;;6.95;;
29238;SDS011;16267;48.194;11.546;2023-01-29T02:20:38;12.57;;;7.47;;
29238;SDS011;16267;48.194;11.546;2023-01-29T02:34:39;15.18;;;9.27;;
29238;SDS011;16267;48.194;11.546;2023-01-29T02:41:35;17.17;;;10.18;;
29238;SDS011;16267;48.194;11.546;2023-01-29T02:44:42;16.83;;;10.73;;
29238;SDS011;16267;48.194;11.546;2023-01-29T02:47:29;16.70;;;10.48;;
29238;SDS011;16267;48.194;11.546;2023-01-29T02:56:11;17.48;;;10.20;;
29238;SDS011;16267;48.194;11.546;2023-01-29T02:58:54;17.02;;;10.63;;
29238;SDS011;16267;48.194;11.546;2023-01-29T03:01:45;18.95;;;11.38;;
29238;SDS011;16267;48.194;11.546;2023-01-29T03:04:28;17.48;;;11.40;;
29238;SDS011;16267;48.194;11.546;2023-01-29T03:07:47;15.88;;;10.07;;
29238;SDS011;16267;48.194;11.546;2023-01-29T03:10:16;18.48;;;10.50;;
29238;SDS011;16267;48.194;11.546;2023-01-29T03:12:45;18.35;;;10.70;;
29238;SDS011;16267;48.194;11.546;2023-01-29T03:18:18;18.63;;;11.13;;
29238;SDS011;16267;48.194;11.546;2023-01-29T03:20:53;19.02;;;11.77;;
29238;SDS011;16267;48.194;11.546;2023-01-29T03:23:28;19.50;;;11.50;;
29238;SDS011;16267;48.194;11.546;2023-01-29T03:26:19;16.35;;;10.90;;
29238;SDS011;16267;48.194;11.546;2023-01-29T03:29:05;16.70;;;10.45;;
29238;SDS011;16267;48.194;11.546;2023-01-29T03:31:52;18.77;;;10.45;;
29238;SDS011;16267;48.194;11.546;2023-01-29T03:34:37;16.70;;;10.45;;
29238;SDS011;16267;48.194;11.546;2023-01-29T03:37:21;16.35;;;10.30;;
29238;SDS011;16267;48.194;11.546;2023-01-29T03:39:59;16.98;;;10.77;;
29238;SDS011;16267;48.194;11.546;2023-01-29T03:45:20;15.80;;;10.07;;
29238;SDS011;16267;48.194;11.546;2023-01-29T03:47:53;16.92;;;9.65;;
29238;SDS011;16267;48.194;11.546;2023-01-29T03:56:58;17.40;;;10.73;;
29238;SDS011;16267;48.194;11.546;2023-01-29T03:59:34;15.10;;;10.07;;
29238;SDS011;16267;48.194;11.546;2023-01-29T04:02:12;15.60;;;10.45;;
29238;SDS011;16267;48.194;11.546;2023-01-29T04:04:46;17.85;;;11.05;;
29238;SDS011;16267;48.194;11.546;2023-01-29T04:07:19;14.77;;;9.68;;
29238;SDS011;16267;48.194;11.546;2023-01-29T04:09:53;15.98;;;10.25;;
29238;SDS011;16267;48.194;11.546;2023-01-29T04:12:27;15.75;;;9.90;;
29238;SDS011;16267;48.194;11.546;2023-01-29T04:15:08;16.23;;;10.20;;
29238;SDS011;16267;48.194;11.546;2023-01-29T04:17:40;14.35;;;9.93;;
29238;SDS011;16267;48.194;11.546;2023-01-29T04:20:11;11.63;;;7.43;;
29238;SDS011;16267;48.194;11.546;2023-01-29T04:22:38;17.05;;;10.63;;
29238;SDS011;16267;48.194;11.546;2023-01-29T04:25:06;15.20;;;10.52;;
29238;SDS011;16267;48.194;11.546;2023-01-29T04:30:38;14.73;;;10.10;;
29238;SDS011;16267;48.194;11.546;2023-01-29T04:33:17;20.58;;;10.63;;
29238;SDS011;16267;48.194;11.546;2023-01-29T04:36:03;15.25;;;10.15;;
29238;SDS011;16267;48.194;11.546;2023-01-29T04:39:09;15.45;;;10.20;;
29238;SDS011;16267;48.194;11.546;2023-01-29T04:50:45;15.82;;;10.18;;
29238;SDS011;16267;48.194;11.546;2023-01-29T04:53:56;14.75;;;9.98;;
29238;SDS011;16267;48.194;11.546;2023-01-29T04:59:38;16.42;;;9.57;;
29238;SDS011;16267;48.194;11.546;2023-01-29T05:02:11;12.80;;;9.10;;
29238;SDS011;16267;48.194;11.546;2023-01-29T05:04:37;14.95;;;10.25;;
29238;SDS011;16267;48.194;11.546;2023-01-29T05:07:10;15.32;;;10.27;;
29238;SDS011;16267;48.194;11.546;2023-01-29T05:09:38;15.10;;;9.70;;
29238;SDS011;16267;48.194;11.546;2023-01-29T05:12:07;15.70;;;10.23;;
29238;SDS011;16267;48.194;11.546;2023-01-29T05:14:36;11.70;;;8.23;;
29238;SDS011;16267;48.194;11.546;2023-01-29T05:17:04;13.77;;;8.80;;
29238;SDS011;16267;48.194;11.546;2023-01-29T05:19:39;14.15;;;9.50;;
29238;SDS011;16267;48.194;11.546;2023-01-29T05:22:05;13.38;;;9.48;;
29238;SDS011;16267;48.194;11.546;2023-01-29T05:24:48;16.50;;;10.10;;
29238;SDS011;16267;48.194;11.546;2023-01-29T05:27:19;16.27;;;10.32;;
29238;SDS011;16267;48.194;11.546;2023-01-29T05:30:12;13.85;;;9.55;;
29238;SDS011;16267;48.194;11.546;2023-01-29T05:32:38;16.85;;;10.90;;
29238;SDS011;16267;48.194;11.546;2023-01-29T05:35:04;15.40;;;10.43;;
29238;SDS011;16267;48.194;11.546;2023-01-29T05:37:30;18.52;;;10.77;;
29238;SDS011;16267;48.194;11.546;2023-01-29T05:39:56;17.23;;;11.10;;
29238;SDS011;16267;48.194;11.546;2023-01-29T05:42:22;22.67;;;10.95;;
29238;SDS011;16267;48.194;11.546;2023-01-29T05:44:48;17.88;;;11.25;;
29238;SDS011;16267;48.194;11.546;2023-01-29T05:47:17;18.85;;;10.32;;
29238;SDS011;16267;48.194;11.546;2023-01-29T05:49:44;17.13;;;10.50;;
29238;SDS011;16267;48.194;11.546;2023-01-29T05:52:09;16.30;;;10.82;;
29238;SDS011;16267;48.194;11.546;2023-01-29T05:54:35;17.95;;;11.30;;
29238;SDS011;16267;48.194;11.546;2023-01-29T05:57:01;16.30;;;11.07;;
29238;SDS011;16267;48.194;11.546;2023-01-29T05:59:27;16.52;;;10.70;;
29238;SDS011;16267;48.194;11.546;2023-01-29T06:01:55;15.77;;;10.85;;
29238;SDS011;16267;48.194;11.546;2023-01-29T06:04:21;17.90;;;11.40;;
29238;SDS011;16267;48.194;11.546;2023-01-29T06:06:47;17.92;;;11.68;;
29238;SDS011;16267;48.194;11.546;2023-01-29T06:11:45;18.53;;;11.47;;
29238;SDS011;16267;48.194;11.546;2023-01-29T06:14:11;15.68;;;10.68;;
29238;SDS011;16267;48.194;11.546;2023-01-29T06:16:36;18.85;;;11.65;;
29238;SDS011;16267;48.194;11.546;2023-01-29T06:19:02;17.80;;;11.68;;
29238;SDS011;16267;48.194;11.546;2023-01-29T06:21:28;18.40;;;11.52;;
29238;SDS011;16267;48.194;11.546;2023-01-29T06:23:54;21.73;;;11.80;;
29238;SDS011;16267;48.194;11.546;2023-01-29T06:26:19;17.10;;;11.18;;
29238;SDS011;16267;48.194;11.546;2023-01-29T06:28:48;20.85;;;12.00;;
29238;SDS011;16267;48.194;11.546;2023-01-29T06:31:15;18.92;;;12.07;;
29238;SDS011;16267;48.194;11.546;2023-01-29T06:33:42;20.45;;;12.05;;
29238;SDS011;16267;48.194;11.546;2023-01-29T06:36:08;18.13;;;11.73;;
29238;SDS011;16267;48.194;11.546;2023-01-29T06:38:34;16.23;;;10.90;;
29238;SDS011;16267;48.194;11.546;2023-01-29T06:41:06;18.10;;;12.63;;
29238;SDS011;16267;48.194;11.546;2023-01-29T06:43:35;21.10;;;12.60;;
29238;SDS011;16267;48.194;11.546;2023-01-29T06:46:01;18.73;;;11.70;;
29238;SDS011;16267;48.194;11.546;2023-01-29T06:48:27;21.25;;;12.95;;
29238;SDS011;16267;48.194;11.546;2023-01-29T06:50:53;18.27;;;12.27;;
29238;SDS011;16267;48.194;11.546;2023-01-29T06:53:19;19.00;;;12.55;;
29238;SDS011;16267;48.194;11.546;2023-01-29T06:55:52;22.92;;;12.45;;
29238;SDS011;16267;48.194;11.546;2023-01-29T06:58:18;20.77;;;12.10;;
29238;SDS011;16267;48.194;11.546;2023-01-29T07:00:45;18.98;;;11.75;;
29238;SDS011;16267;48.194;11.546;2023-01-29T07:03:11;19.25;;;12.57;;
29238;SDS011;16267;48.194;11.546;2023-01-29T07:05:37;16.73;;;11.43;;
29238;SDS011;16267;48.194;11.546;2023-01-29T07:08:03;16.88;;;11.40;;
29238;SDS011;16267;48.194;11.546;2023-01-29T07:10:29;17.70;;;12.00;;
29238;SDS011;16267;48.194;11.546;2023-01-29T07:12:55;18.70;;;12.30;;
29238;SDS011;16267;48.194;11.546;2023-01-29T07:15:23;15.88;;;11.10;;
29238;SDS011;16267;48.194;11.546;2023-01-29T07:18:00;18.23;;;11.60;;
29238;SDS011;16267;48.194;11.546;2023-01-29T07:20:29;17.45;;;11.98;;
29238;SDS011;16267;48.194;11.546;2023-01-29T07:22:56;19.17;;;12.23;;
29238;SDS011;16267;48.194;11.546;2023-01-29T07:25:22;17.77;;;12.23;;
29238;SDS011;16267;48.194;11.546;2023-01-29T07:27:49;18.58;;;12.13;;
29238;SDS011;16267;48.194;11.546;2023-01-29T07:30:15;18.60;;;11.65;;
29238;SDS011;16267;48.194;11.546;2023-01-29T07:32:42;19.33;;;11.48;;
29238;SDS011;16267;48.194;11.546;2023-01-29T07:35:08;19.63;;;12.75;;
29238;SDS011;16267;48.194;11.546;2023-01-29T07:37:34;19.45;;;11.85;;
29238;SDS011;16267;48.194;11.546;2023-01-29T07:40:01;19.13;;;12.68;;
29238;SDS011;16267;48.194;11.546;2023-01-29T07:42:29;17.42;;;11.02;;
29238;SDS011;16267;48.194;11.546;2023-01-29T07:44:55;19.58;;;11.13;;
29238;SDS011;16267;48.194;11.546;2023-01-29T07:47:21;18.17;;;12.38;;
29238;SDS011;16267;48.194;11.546;2023-01-29T07:49:47;18.17;;;11.30;;
29238;SDS011;16267;48.194;11.546;2023-01-29T07:52:16;19.67;;;12.07;;
29238;SDS011;16267;48.194;11.546;2023-01-29T07:54:42;16.52;;;11.30;;
29238;SDS011;16267;48.194;11.546;2023-01-29T07:57:08;15.88;;;10.80;;
29238;SDS011;16267;48.194;11.546;2023-01-29T07:59:34;17.40;;;11.82;;
29238;SDS011;16267;48.194;11.546;2023-01-29T08:02:00;17.00;;;11.18;;
29238;SDS011;16267;48.194;11.546;2023-01-29T08:04:26;18.08;;;11.38;;
29238;SDS011;16267;48.194;11.546;2023-01-29T08:06:52;17.10;;;11.70;;
29238;SDS011;16267;48.194;11.546;2023-01-29T08:09:18;17.05;;;11.88;;
29238;SDS011;16267;48.194;11.546;2023-01-29T08:11:44;20.33;;;12.65;;
29238;SDS011;16267;48.194;11.546;2023-01-29T08:14:10;25.20;;;12.88;;
29238;SDS011;16267;48.194;11.546;2023-01-29T08:16:36;23.40;;;13.30;;
29238;SDS011;16267;48.194;11.546;2023-01-29T08:19:01;27.70;;;17.55;;
29238;SDS011;16267;48.194;11.546;2023-01-29T08:21:29;17.25;;;11.95;;
29238;SDS011;16267;48.194;11.546;2023-01-29T08:23:55;20.17;;;12.43;;
29238;SDS011;16267;48.194;11.546;2023-01-29T08:26:21;17.45;;;11.85;;
29238;SDS011;16267;48.194;11.546;2023-01-29T08:28:53;18.67;;;11.75;;
29238;SDS011;16267;48.194;11.546;2023-01-29T08:31:19;14.82;;;9.73;;
29238;SDS011;16267;48.194;11.546;2023-01-29T08:33:45;23.80;;;12.05;;
29238;SDS011;16267;48.194;11.546;2023-01-29T08:36:15;17.85;;;10.95;;
29238;SDS011;16267;48.194;11.546;2023-01-29T08:38:41;17.75;;;11.05;;
29238;SDS011;16267;48.194;11.546;2023-01-29T08:41:07;20.50;;;11.68;;
29238;SDS011;16267;48.194;11.546;2023-01-29T08:47:27;18.05;;;11.32;;
29238;SDS011;16267;48.194;11.546;2023-01-29T08:49:59;18.30;;;11.98;;
29238;SDS011;16267;48.194;11.546;2023-01-29T08:55:58;22.05;;;12.93;;
29238;SDS011;16267;48.194;11.546;2023-01-29T08:58:27;21.67;;;13.80;;
29238;SDS011;16267;48.194;11.546;2023-01-29T09:03:53;21.08;;;14.05;;
29238;SDS011;16267;48.194;11.546;2023-01-29T09:09:24;19.23;;;12.88;;
29238;SDS011;16267;48.194;11.546;2023-01-29T09:11:50;18.67;;;12.13;;
29238;SDS011;16267;48.194;11.546;2023-01-29T09:14:16;17.77;;;11.98;;
29238;SDS011;16267;48.194;11.546;2023-01-29T09:16:42;17.08;;;11.70;;
29238;SDS011;16267;48.194;11.546;2023-01-29T09:19:08;16.48;;;11.88;;
29238;SDS011;16267;48.194;11.546;2023-01-29T09:24:15;18.02;;;11.98;;
29238;SDS011;16267;48.194;11.546;2023-01-29T09:26:41;21.33;;;14.05;;
29238;SDS011;16267;48.194;11.546;2023-01-29T09:29:08;21.45;;;13.07;;
29238;SDS011;16267;48.194;11.546;2023-01-29T09:31:34;18.70;;;11.90;;
29238;SDS011;16267;48.194;11.546;2023-01-29T09:34:00;25.65;;;15.55;;
29238;SDS011;16267;48.194;11.546;2023-01-29T09:36:26;20.83;;;13.35;;
29238;SDS011;16267;48.194;11.546;2023-01-29T09:38:52;19.30;;;12.57;;
29238;SDS011;16267;48.194;11.546;2023-01-29T09:47:38;15.60;;;10.30;;
29238;SDS011;16267;48.194;11.546;2023-01-29T09:53:19;19.00;;;12.10;;
29238;SDS011;16267;48.194;11.546;2023-01-29T09:55:53;24.38;;;13.65;;
29238;SDS011;16267;48.194;11.546;2023-01-29T09:58:43;22.25;;;13.13;;
29238;SDS011;16267;48.194;11.546;2023-01-29T10:12:11;17.25;;;10.90;;
29238;SDS011;16267;48.194;11.546;2023-01-29T10:17:53;14.40;;;9.50;;
29238;SDS011;16267;48.194;11.546;2023-01-29T10:20:54;15.88;;;9.93;;
29238;SDS011;16267;48.194;11.546;2023-01-29T10:24:32;18.40;;;10.45;;
29238;SDS011;16267;48.194;11.546;2023-01-29T10:26:48;16.95;;;10.75;;
29238;SDS011;16267;48.194;11.546;2023-01-29T10:29:17;17.50;;;11.20;;
29238;SDS011;16267;48.194;11.546;2023-01-29T10:31:46;15.55;;;10.82;;
29238;SDS011;16267;48.194;11.546;2023-01-29T10:36:59;15.50;;;10.50;;
29238;SDS011;16267;48.194;11.546;2023-01-29T10:39:32;16.17;;;10.57;;
29238;SDS011;16267;48.194;11.546;2023-01-29T10:52:14;15.55;;;9.73;;
29238;SDS011;16267;48.194;11.546;2023-01-29T10:57:03;15.15;;;10.00;;
29238;SDS011;16267;48.194;11.546;2023-01-29T11:00:01;15.05;;;10.15;;
29238;SDS011;16267;48.194;11.546;2023-01-29T11:02:43;16.48;;;10.45;;
29238;SDS011;16267;48.194;11.546;2023-01-29T11:05:59;15.93;;;10.93;;
29238;SDS011;16267;48.194;11.546;2023-01-29T11:08:24;14.60;;;9.55;;
29238;SDS011;16267;48.194;11.546;2023-01-29T11:13:40;15.23;;;9.77;;
29238;SDS011;16267;48.194;11.546;2023-01-29T11:16:13;18.25;;;10.48;;
29238;SDS011;16267;48.194;11.546;2023-01-29T11:21:26;13.57;;;9.75;;
29238;SDS011;16267;48.194;11.546;2023-01-29T11:24:36;14.93;;;10.20;;
29238;SDS011;16267;48.194;11.546;2023-01-29T11:26:43;14.05;;;9.65;;
29238;SDS011;16267;48.194;11.546;2023-01-29T11:29:29;14.55;;;9.90;;
29238;SDS011;16267;48.194;11.546;2023-01-29T11:32:02;12.73;;;9.15;;
29238;SDS011;16267;48.194;11.546;2023-01-29T11:34:57;14.63;;;10.02;;
29238;SDS011;16267;48.194;11.546;2023-01-29T11:37:47;14.75;;;10.27;;
29238;SDS011;16267;48.194;11.546;2023-01-29T11:46:00;15.40;;;9.98;;
29238;SDS011;16267;48.194;11.546;2023-01-29T11:51:10;15.18;;;10.20;;
29238;SDS011;16267;48.194;11.546;2023-01-29T11:53:50;14.85;;;10.23;;
29238;SDS011;16267;48.194;11.546;2023-01-29T11:59:29;14.43;;;10.25;;
29238;SDS011;16267;48.194;11.546;2023-01-29T12:02:03;12.47;;;8.47;;
29238;SDS011;16267;48.194;11.546;2023-01-29T12:08:09;15.55;;;10.25;;
29238;SDS011;16267;48.194;11.546;2023-01-29T12:10:42;15.10;;;10.52;;
29238;SDS011;16267;48.194;11.546;2023-01-29T12:15:34;17.23;;;11.82;;
29238;SDS011;16267;48.194;11.546;2023-01-29T12:18:39;17.25;;;11.00;;
29238;SDS011;16267;48.194;11.546;2023-01-29T12:21:25;17.92;;;11.27;;
29238;SDS011;16267;48.194;11.546;2023-01-29T12:40:12;17.42;;;11.35;;
29238;SDS011;16267;48.194;11.546;2023-01-29T12:42:40;19.58;;;11.05;;
29238;SDS011;16267;48.194;11.546;2023-01-29T12:45:20;20.40;;;12.32;;
29238;SDS011;16267;48.194;11.546;2023-01-29T12:47:51;17.85;;;11.75;;
29238;SDS011;16267;48.194;11.546;2023-01-29T12:50:29;18.50;;;12.20;;
29238;SDS011;16267;48.194;11.546;2023-01-29T12:53:06;17.90;;;12.63;;
29238;SDS011;16267;48.194;11.546;2023-01-29T12:55:40;17.92;;;11.73;;
29238;SDS011;16267;48.194;11.546;2023-01-29T12:58:13;18.08;;;12.27;;
29238;SDS011;16267;48.194;11.546;2023-01-29T13:00:53;16.95;;;11.95;;
29238;SDS011;16267;48.194;11.546;2023-01-29T13:03:25;18.55;;;12.32;;
29238;SDS011;16267;48.194;11.546;2023-01-29T13:06:08;17.58;;;12.48;;
29238;SDS011;16267;48.194;11.546;2023-01-29T13:08:46;19.77;;;12.85;;
29238;SDS011;16267;48.194;11.546;2023-01-29T13:11:25;19.75;;;12.52;;
29238;SDS011;16267;48.194;11.546;2023-01-29T13:14:24;18.67;;;12.68;;
29238;SDS011;16267;48.194;11.546;2023-01-29T13:16:53;19.17;;;12.65;;
29238;SDS011;16267;48.194;11.546;2023-01-29T13:19:36;17.83;;;12.48;;
29238;SDS011;16267;48.194;11.546;2023-01-29T13:22:12;19.83;;;13.23;;
29238;SDS011;16267;48.194;11.546;2023-01-29T13:24:47;18.75;;;12.23;;
29238;SDS011;16267;48.194;11.546;2023-01-29T13:27:21;18.08;;;12.55;;
29238;SDS011;16267;48.194;11.546;2023-01-29T13:29:51;19.92;;;13.45;;
29238;SDS011;16267;48.194;11.546;2023-01-29T13:32:19;21.15;;;13.65;;
29238;SDS011;16267;48.194;11.546;2023-01-29T13:34:52;19.92;;;13.27;;
29238;SDS011;16267;48.194;11.546;2023-01-29T13:37:24;22.88;;;13.25;;
29238;SDS011;16267;48.194;11.546;2023-01-29T13:39:59;21.17;;;13.10;;
29238;SDS011;16267;48.194;11.546;2023-01-29T13:42:47;20.40;;;13.30;;
29238;SDS011;16267;48.194;11.546;2023-01-29T13:45:21;19.23;;;13.38;;
29238;SDS011;16267;48.194;11.546;2023-01-29T13:48:44;20.75;;;14.20;;
29238;SDS011;16267;48.194;11.546;2023-01-29T13:50:48;23.58;;;14.63;;
29238;SDS011;16267;48.194;11.546;2023-01-29T13:53:24;22.30;;;13.02;;
29238;SDS011;16267;48.194;11.546;2023-01-29T13:56:55;18.98;;;12.68;;
29238;SDS011;16267;48.194;11.546;2023-01-29T13:58:55;20.92;;;13.43;;
29238;SDS011;16267;48.194;11.546;2023-01-29T14:06:50;21.60;;;14.05;;
29238;SDS011;16267;48.194;11.546;2023-01-29T14:09:32;18.27;;;12.53;;
29238;SDS011;16267;48.194;11.546;2023-01-29T14:12:00;19.48;;;13.10;;
29238;SDS011;16267;48.194;11.546;2023-01-29T14:17:15;21.42;;;14.38;;
29238;SDS011;16267;48.194;11.546;2023-01-29T14:19:51;21.52;;;14.20;;
29238;SDS011;16267;48.194;11.546;2023-01-29T14:22:28;20.30;;;14.30;;
29238;SDS011;16267;48.194;11.546;2023-01-29T14:24:56;19.35;;;13.05;;
29238;SDS011;16267;48.194;11.546;2023-01-29T14:27:27;22.10;;;14.03;;
29238;SDS011;16267;48.194;11.546;2023-01-29T14:30:01;20.80;;;14.07;;
29238;SDS011;16267;48.194;11.546;2023-01-29T14:32:33;24.70;;;14.82;;
29238;SDS011;16267;48.194;11.546;2023-01-29T14:35:25;20.50;;;13.63;;
29238;SDS011;16267;48.194;11.546;2023-01-29T14:37:53;21.50;;;13.70;;
29238;SDS011;16267;48.194;11.546;2023-01-29T14:40:25;18.88;;;12.90;;
29238;SDS011;16267;48.194;11.546;2023-01-29T14:43:04;18.15;;;12.38;;
29238;SDS011;16267;48.194;11.546;2023-01-29T14:45:43;21.33;;;13.02;;
29238;SDS011;16267;48.194;11.546;2023-01-29T14:51:13;19.30;;;13.40;;
29238;SDS011;16267;48.194;11.546;2023-01-29T14:56:28;17.77;;;13.10;;
29238;SDS011;16267;48.194;11.546;2023-01-29T14:59:31;22.23;;;13.23;;
29238;SDS011;16267;48.194;11.546;2023-01-29T15:04:47;21.83;;;13.18;;
29238;SDS011;16267;48.194;11.546;2023-01-29T15:07:29;24.00;;;13.30;;
29238;SDS011;16267;48.194;11.546;2023-01-29T15:10:08;23.85;;;13.02;;
29238;SDS011;16267;48.194;11.546;2023-01-29T15:12:44;25.60;;;13.02;;
29238;SDS011;16267;48.194;11.546;2023-01-29T15:15:42;20.58;;;13.27;;
29238;SDS011;16267;48.194;11.546;2023-01-29T15:18:22;21.07;;;13.33;;
29238;SDS011;16267;48.194;11.546;2023-01-29T15:21:09;18.35;;;12.57;;
29238;SDS011;16267;48.194;11.546;2023-01-29T15:23:41;20.45;;;12.10;;
29238;SDS011;16267;48.194;11.546;2023-01-29T15:26:12;18.23;;;12.60;;
29238;SDS011;16267;48.194;11.546;2023-01-29T15:28:54;19.90;;;12.10;;
29238;SDS011;16267;48.194;11.546;2023-01-29T15:31:25;19.95;;;12.80;;
29238;SDS011;16267;48.194;11.546;2023-01-29T15:33:53;19.45;;;11.75;;
29238;SDS011;16267;48.194;11.546;2023-01-29T15:36:27;18.30;;;12.45;;
29238;SDS011;16267;48.194;11.546;2023-01-29T15:41:36;19.65;;;13.18;;
29238;SDS011;16267;48.194;11.546;2023-01-29T15:44:02;19.73;;;12.93;;
29238;SDS011;16267;48.194;11.546;2023-01-29T15:46:29;21.60;;;13.95;;
29238;SDS011;16267;48.194;11.546;2023-01-29T15:49:02;14.30;;;9.85;;
29238;SDS011;16267;48.194;11.546;2023-01-29T15:51:32;18.27;;;12.83;;
29238;SDS011;16267;48.194;11.546;2023-01-29T15:53:59;18.30;;;13.18;;
29238;SDS011;16267;48.194;11.546;2023-01-29T15:56:48;20.25;;;13.30;;
29238;SDS011;16267;48.194;11.546;2023-01-29T15:59:18;26.73;;;15.82;;
29238;SDS011;16267;48.194;11.546;2023-01-29T16:01:49;23.98;;;14.18;;
29238;SDS011;16267;48.194;11.546;2023-01-29T16:04:16;23.60;;;13.05;;
29238;SDS011;16267;48.194;11.546;2023-01-29T16:06:50;21.52;;;13.45;;
29238;SDS011;16267;48.194;11.546;2023-01-29T16:09:19;21.02;;;13.52;;
29238;SDS011;16267;48.194;11.546;2023-01-29T16:11:49;24.90;;;14.52;;
29238;SDS011;16267;48.194;11.546;2023-01-29T16:14:18;22.65;;;15.05;;
29238;SDS011;16267;48.194;11.546;2023-01-29T16:16:47;24.05;;;14.93;;
29238;SDS011;16267;48.194;11.546;2023-01-29T16:19:18;21.95;;;13.68;;
29238;SDS011;16267;48.194;11.546;2023-01-29T16:22:00;24.77;;;15.35;;
29238;SDS011;16267;48.194;11.546;2023-01-29T16:24:30;27.15;;;15.88;;
29238;SDS011;16267;48.194;11.546;2023-01-29T16:27:01;22.23;;;14.95;;
29238;SDS011;16267;48.194;11.546;2023-01-29T16:29:35;22.50;;;14.05;;
29238;SDS011;16267;48.194;11.546;2023-01-29T16:32:01;22.15;;;13.68;;
29238;SDS011;16267;48.194;11.546;2023-01-29T16:34:37;22.98;;;14.32;;
29238;SDS011;16267;48.194;11.546;2023-01-29T16:37:20;22.52;;;13.85;;
29238;SDS011;16267;48.194;11.546;2023-01-29T16:39:48;22.40;;;14.68;;
29238;SDS011;16267;48.194;11.546;2023-01-29T16:44:45;22.80;;;14.75;;
29238;SDS011;16267;48.194;11.546;2023-01-29T16:50:02;25.63;;;14.60;;
29238;SDS011;16267;48.194;11.546;2023-01-29T16:53:00;23.40;;;15.18;;
29238;SDS011;16267;48.194;11.546;2023-01-29T16:55:42;20.13;;;11.20;;
29238;SDS011;16267;48.194;11.546;2023-01-29T16:58:12;22.23;;;14.15;;
29238;SDS011;16267;48.194;11.546;2023-01-29T17:00:49;25.35;;;14.07;;
29238;SDS011;16267;48.194;11.546;2023-01-29T17:03:29;22.90;;;14.57;;
29238;SDS011;16267;48.194;11.546;2023-01-29T17:05:58;23.25;;;14.27;;
29238;SDS011;16267;48.194;11.546;2023-01-29T17:08:36;25.55;;;14.50;;
29238;SDS011;16267;48.194;11.546;2023-01-29T17:11:06;21.73;;;13.73;;
29238;SDS011;16267;48.194;11.546;2023-01-29T17:13:34;25.00;;;15.25;;
29238;SDS011;16267;48.194;11.546;2023-01-29T17:16:14;25.15;;;14.52;;
29238;SDS011;16267;48.194;11.546;2023-01-29T17:18:52;23.77;;;14.77;;
29238;SDS011;16267;48.194;11.546;2023-01-29T17:21:18;22.38;;;14.82;;
29238;SDS011;16267;48.194;11.546;2023-01-29T17:23:44;25.25;;;15.65;;
29238;SDS011;16267;48.194;11.546;2023-01-29T17:26:11;21.13;;;14.00;;
29238;SDS011;16267;48.194;11.546;2023-01-29T17:28:39;24.20;;;15.52;;
29238;SDS011;16267;48.194;11.546;2023-01-29T17:31:05;23.80;;;14.80;;
29238;SDS011;16267;48.194;11.546;2023-01-29T17:33:32;23.67;;;15.48;;
29238;SDS011;16267;48.194;11.546;2023-01-29T17:36:03;20.83;;;13.52;;
29238;SDS011;16267;48.194;11.546;2023-01-29T17:38:29;23.35;;;14.88;;
29238;SDS011;16267;48.194;11.546;2023-01-29T17:40:56;24.63;;;15.70;;
29238;SDS011;16267;48.194;11.546;2023-01-29T17:43:32;29.90;;;15.82;;
29238;SDS011;16267;48.194;11.546;2023-01-29T17:45:58;21.45;;;14.32;;
29238;SDS011;16267;48.194;11.546;2023-01-29T17:48:25;21.85;;;13.90;;
29238;SDS011;16267;48.194;11.546;2023-01-29T17:50:57;20.58;;;13.35;;